createdAt,value
2018-04-09T00:02:16.645Z,99.90
2018-04-09T00:04:44.120Z,99.90
2018-04-09T00:07:11.579Z,98.70
2018-04-09T00:09:39.051Z,99.90
2018-04-09T00:12:07.275Z,99.90
2018-04-09T00:14:34.749Z,99.90
2018-04-09T00:17:02.208Z,99.90
2018-04-09T00:19:30.451Z,99.90
2018-04-09T00:21:57.915Z,99.90
2018-04-09T00:24:25.383Z,99.90
2018-04-09T00:26:53.621Z,99.90
2018-04-09T00:29:21.088Z,99.90
2018-04-09T00:31:54.383Z,99.90
2018-04-09T00:34:22.624Z,99.90
2018-04-09T00:36:50.078Z,99.90
2018-04-09T00:39:17.552Z,99.90
2018-04-09T00:41:45.016Z,99.90
2018-04-09T00:44:13.251Z,99.90
2018-04-09T00:46:40.715Z,99.90
2018-04-09T00:49:08.951Z,99.90
2018-04-09T00:51:36.412Z,99.90
2018-04-09T00:54:03.903Z,99.90
2018-04-09T00:56:31.371Z,99.90
2018-04-09T00:58:58.831Z,99.90
2018-04-09T01:01:27.061Z,99.90
2018-04-09T01:03:54.538Z,99.90
2018-04-09T01:06:22.763Z,99.90
2018-04-09T01:08:50.219Z,99.90
2018-04-09T01:11:17.691Z,99.90
2018-04-09T01:13:46.046Z,99.90
2018-04-09T01:16:13.522Z,99.90
2018-04-09T01:18:40.970Z,99.90
2018-04-09T01:21:08.452Z,99.90
2018-04-09T01:23:35.923Z,99.90
2018-04-09T01:26:03.397Z,99.90
2018-04-09T01:28:31.615Z,99.90
2018-04-09T01:30:59.094Z,99.90
2018-04-09T01:33:26.554Z,99.90
2018-04-09T01:35:54.025Z,99.90
2018-04-09T01:38:21.485Z,99.90
2018-04-09T01:40:48.956Z,99.90
2018-04-09T01:43:16.419Z,99.90
2018-04-09T01:45:43.890Z,99.90
2018-04-09T01:48:11.347Z,99.90
2018-04-09T01:50:39.584Z,99.90
2018-04-09T01:53:07.043Z,99.90
2018-04-09T01:55:34.518Z,99.90
2018-04-09T01:58:02.739Z,99.90
2018-04-09T02:00:30.208Z,99.90
2018-04-09T02:02:57.671Z,99.90
2018-04-09T02:05:25.915Z,99.90
2018-04-09T02:07:53.372Z,99.90
2018-04-09T02:10:20.851Z,99.90
2018-04-09T02:12:48.311Z,99.90
2018-04-09T02:15:16.550Z,99.90
2018-04-09T02:17:44.012Z,99.90
2018-04-09T02:20:11.483Z,99.90
2018-04-09T02:22:39.708Z,99.90
2018-04-09T02:25:07.174Z,99.90
2018-04-09T02:27:34.640Z,99.90
2018-04-09T02:30:02.881Z,99.90
2018-04-09T02:32:30.344Z,99.90
2018-04-09T02:34:57.844Z,99.90
2018-04-09T02:37:25.316Z,99.90
2018-04-09T02:39:52.785Z,99.90
2018-04-09T02:42:20.245Z,99.90
2018-04-09T02:44:47.725Z,99.90
2018-04-09T02:47:15.175Z,99.90
2018-04-09T02:49:42.651Z,99.90
2018-04-09T02:52:10.111Z,99.90
2018-04-09T02:54:37.587Z,99.90
2018-04-09T02:57:05.053Z,99.90
2018-04-09T02:59:32.519Z,99.90
2018-04-09T03:01:59.985Z,99.90
2018-04-09T03:04:27.451Z,99.90
2018-04-09T03:06:54.928Z,99.90
2018-04-09T03:09:22.402Z,99.90
2018-04-09T03:11:49.863Z,99.90
2018-04-09T03:14:17.314Z,99.90
2018-04-09T03:16:45.551Z,99.90
2018-04-09T03:19:13.019Z,99.90
2018-04-09T03:21:40.484Z,99.90
2018-04-09T03:24:08.716Z,99.90
2018-04-09T03:26:36.174Z,99.90
2018-04-09T03:29:03.639Z,99.90
2018-04-09T03:31:31.105Z,99.90
2018-04-09T03:33:58.617Z,99.90
2018-04-09T03:36:26.047Z,99.90
2018-04-09T03:38:53.511Z,99.90
2018-04-09T03:41:20.979Z,99.90
2018-04-09T03:43:48.440Z,99.90
2018-04-09T03:46:16.685Z,99.90
2018-04-09T03:48:44.144Z,99.90
2018-04-09T03:51:11.615Z,99.90
2018-04-09T03:53:39.080Z,99.90
2018-04-09T03:56:07.314Z,99.90
2018-04-09T03:58:34.775Z,99.90
2018-04-09T04:01:02.239Z,99.90
2018-04-09T04:03:30.466Z,99.90
2018-04-09T04:05:57.935Z,99.90
2018-04-09T04:08:26.164Z,99.90
2018-04-09T04:10:53.644Z,99.90
2018-04-09T04:13:21.092Z,99.90
2018-04-09T04:16:01.061Z,99.90
2018-04-09T04:18:41.289Z,99.90
2018-04-09T04:21:20.741Z,99.90
2018-04-09T04:23:48.202Z,99.90
2018-04-09T04:26:16.440Z,99.90
2018-04-09T04:28:43.891Z,99.90
2018-04-09T04:31:23.726Z,99.90
2018-04-09T04:33:51.197Z,99.90
2018-04-09T04:36:19.639Z,99.90
2018-04-09T04:38:47.858Z,99.90
2018-04-09T04:41:15.412Z,99.90
2018-04-09T04:43:43.856Z,99.90
2018-04-09T04:46:11.327Z,99.90
2018-04-09T04:48:38.792Z,99.90
2018-04-09T04:51:06.262Z,99.90
2018-04-09T04:53:38.119Z,99.90
2018-04-09T04:56:05.586Z,99.90
2018-04-09T04:58:33.055Z,99.90
2018-04-09T05:01:00.520Z,99.90
2018-04-09T05:03:27.979Z,99.90
2018-04-09T05:05:55.442Z,99.90
2018-04-09T05:08:23.666Z,99.90
2018-04-09T05:10:51.146Z,99.90
2018-04-09T05:13:18.597Z,99.90
2018-04-09T05:15:46.837Z,99.90
2018-04-09T05:18:14.296Z,99.90
2018-04-09T05:20:41.811Z,99.90
2018-04-09T05:23:09.239Z,99.90
2018-04-09T05:25:37.476Z,99.90
2018-04-09T05:28:04.943Z,99.90
2018-04-09T05:30:32.397Z,99.90
2018-04-09T05:32:59.868Z,99.90
2018-04-09T05:35:27.330Z,99.90
2018-04-09T05:37:54.800Z,99.90
2018-04-09T05:40:22.259Z,99.90
2018-04-09T05:42:49.731Z,99.90
2018-04-09T05:45:17.190Z,99.90
2018-04-09T05:47:44.660Z,99.90
2018-04-09T05:50:12.118Z,99.90
2018-04-09T05:52:39.583Z,99.90
2018-04-09T05:55:07.044Z,99.90
2018-04-09T05:57:34.514Z,99.90
2018-04-09T06:00:03.363Z,99.90
2018-04-09T06:02:30.826Z,99.90
2018-04-09T06:04:58.291Z,99.90
2018-04-09T06:07:26.528Z,99.90
2018-04-09T06:09:53.995Z,99.90
2018-04-09T06:12:21.467Z,99.90
2018-04-09T06:14:48.919Z,99.90
2018-04-09T06:17:16.390Z,99.90
2018-04-09T06:19:43.852Z,99.90
2018-04-09T06:22:11.319Z,99.60
2018-04-09T06:24:38.783Z,99.90
2018-04-09T06:27:06.258Z,98.80
2018-04-09T06:29:35.662Z,94.50
2018-04-09T06:32:03.903Z,76.40
2018-04-09T06:34:31.377Z,76.50
2018-04-09T06:36:58.858Z,74.00
2018-04-09T06:39:26.324Z,70.10
2018-04-09T06:41:54.564Z,59.60
2018-04-09T06:44:22.049Z,59.30
2018-04-09T06:46:49.547Z,58.90
2018-04-09T06:49:17.012Z,47.70
2018-04-09T06:51:44.496Z,42.50
2018-04-09T06:54:11.965Z,35.00
2018-04-09T06:56:39.728Z,30.00
2018-04-09T06:59:07.960Z,22.30
2018-04-09T07:01:36.197Z,17.60
2018-04-09T07:04:03.659Z,17.50
2018-04-09T07:06:31.123Z,13.90
2018-04-09T07:08:58.645Z,10.90
2018-04-09T07:11:26.062Z,10.30
2018-04-09T07:13:53.519Z,7.50
2018-04-09T07:16:21.776Z,3.00
2018-04-09T07:18:49.235Z,3.00
2018-04-09T07:21:16.708Z,3.80
2018-04-09T07:23:44.159Z,3.40
2018-04-09T07:26:11.616Z,1.70
2018-04-09T07:28:39.085Z,1.40
2018-04-09T07:31:06.578Z,1.00
2018-04-09T07:33:34.017Z,1.00
2018-04-09T07:36:01.476Z,1.00
2018-04-09T07:38:29.707Z,1.00
2018-04-09T07:40:57.169Z,1.00
2018-04-09T07:43:25.390Z,1.00
2018-04-09T07:45:52.852Z,1.00
2018-04-09T07:48:21.084Z,1.00
2018-04-09T07:50:48.544Z,1.00
2018-04-09T07:53:16.006Z,1.00
2018-04-09T07:55:44.233Z,1.00
2018-04-09T07:58:11.706Z,1.00
2018-04-09T08:00:40.057Z,1.00
2018-04-09T08:03:07.527Z,1.00
2018-04-09T08:05:34.991Z,1.00
2018-04-09T08:08:02.462Z,1.00
2018-04-09T08:10:29.920Z,1.00
2018-04-09T08:12:58.146Z,1.00
2018-04-09T08:15:25.602Z,1.00
2018-04-09T08:17:53.843Z,1.00
2018-04-09T08:20:21.303Z,1.00
2018-04-09T08:22:48.787Z,1.00
2018-04-09T08:25:16.303Z,1.00
2018-04-09T08:27:43.779Z,1.00
2018-04-09T08:30:11.252Z,1.00
2018-04-09T08:32:38.723Z,1.00
2018-04-09T08:35:06.172Z,1.00
2018-04-09T08:37:33.627Z,1.00
2018-04-09T08:40:01.087Z,1.00
2018-04-09T08:42:29.319Z,1.00
2018-04-09T08:44:56.770Z,1.00
2018-04-09T08:47:24.238Z,1.00
2018-04-09T08:49:51.688Z,1.00
2018-04-09T08:52:19.927Z,1.00
2018-04-09T08:54:47.387Z,1.00
2018-04-09T08:57:14.864Z,1.00
2018-04-09T08:59:42.332Z,1.00
2018-04-09T09:02:10.566Z,1.00
2018-04-09T09:04:38.016Z,1.00
2018-04-09T09:07:06.246Z,1.00
2018-04-09T09:09:33.716Z,1.00
2018-04-09T09:12:01.180Z,1.00
2018-04-09T09:14:29.911Z,1.00
2018-04-09T09:16:58.147Z,1.00
2018-04-09T09:19:29.806Z,1.00
2018-04-09T09:21:57.266Z,1.00
2018-04-09T09:24:25.501Z,1.00
2018-04-09T09:26:52.956Z,1.00
2018-04-09T09:29:20.427Z,1.00
2018-04-09T09:31:48.651Z,1.00
2018-04-09T09:34:16.119Z,1.00
2018-04-09T09:36:43.576Z,1.00
2018-04-09T09:39:11.814Z,1.00
2018-04-09T09:41:39.273Z,1.00
2018-04-09T09:44:07.520Z,1.00
2018-04-09T09:46:34.981Z,1.00
2018-04-09T09:49:02.443Z,1.00
2018-04-09T09:51:29.906Z,1.00
2018-04-09T09:53:58.130Z,1.00
2018-04-09T09:56:25.593Z,1.00
2018-04-09T09:58:53.843Z,1.00
2018-04-09T10:01:21.330Z,1.00
2018-04-09T10:03:48.786Z,1.00
2018-04-09T10:06:16.246Z,1.00
2018-04-09T10:08:44.480Z,1.00
2018-04-09T10:11:11.938Z,1.00
2018-04-09T10:13:39.414Z,1.00
2018-04-09T10:16:07.638Z,1.00
2018-04-09T10:18:35.104Z,1.00
2018-04-09T10:21:02.560Z,1.00
2018-04-09T10:23:30.022Z,1.00
2018-04-09T10:25:57.482Z,1.00
2018-04-09T10:28:24.969Z,1.00
2018-04-09T10:30:52.414Z,1.00
2018-04-09T10:33:19.892Z,1.00
2018-04-09T10:35:47.347Z,1.00
2018-04-09T10:38:14.813Z,1.00
2018-04-09T10:40:42.270Z,1.00
2018-04-09T10:43:09.748Z,1.00
2018-04-09T10:45:37.211Z,1.00
2018-04-09T10:48:04.695Z,1.00
2018-04-09T10:50:32.156Z,1.00
2018-04-09T10:53:00.405Z,1.00
2018-04-09T10:55:27.862Z,1.00
2018-04-09T10:57:55.330Z,1.00
2018-04-09T11:00:23.728Z,1.00
2018-04-09T11:02:51.211Z,1.00
2018-04-09T11:05:19.451Z,1.00
2018-04-09T11:07:46.918Z,1.00
2018-04-09T11:10:14.379Z,1.00
2018-04-09T11:12:42.616Z,1.00
2018-04-09T11:15:10.079Z,1.00
2018-04-09T11:17:37.536Z,1.00
2018-04-09T11:20:05.795Z,1.00
2018-04-09T11:22:33.255Z,1.00
2018-04-09T11:25:01.486Z,1.00
2018-04-09T11:27:28.953Z,1.00
2018-04-09T11:29:56.448Z,1.00
2018-04-09T11:32:23.924Z,1.00
2018-04-09T11:34:51.787Z,1.00
2018-04-09T11:37:19.249Z,1.00
2018-04-09T11:39:47.489Z,1.00
2018-04-09T11:42:15.757Z,1.00
2018-04-09T11:44:43.234Z,1.00
2018-04-09T11:47:11.461Z,1.00
2018-04-09T11:49:38.942Z,1.00
2018-04-09T11:52:06.408Z,1.00
2018-04-09T11:54:33.873Z,1.00
2018-04-09T11:57:02.099Z,1.00
2018-04-09T11:59:30.118Z,1.00
2018-04-09T12:01:57.564Z,1.00
2018-04-09T12:04:25.043Z,1.00
2018-04-09T12:06:52.510Z,1.00
2018-04-09T12:09:19.982Z,1.00
2018-04-09T12:11:47.446Z,1.00
2018-04-09T12:14:14.917Z,1.00
2018-04-09T12:16:42.376Z,1.00
2018-04-09T12:19:09.861Z,1.00
2018-04-09T12:21:37.308Z,1.00
2018-04-09T12:24:05.538Z,1.00
2018-04-09T12:26:32.998Z,1.00
2018-04-09T12:29:01.227Z,1.00
2018-04-09T12:31:28.684Z,1.00
2018-04-09T12:33:56.927Z,1.00
2018-04-09T12:36:24.394Z,1.00
2018-04-09T12:38:51.869Z,1.00
2018-04-09T12:41:19.349Z,1.00
2018-04-09T12:43:47.585Z,1.00
2018-04-09T12:46:15.046Z,1.00
2018-04-09T12:48:42.511Z,1.00
2018-04-09T12:51:09.978Z,1.00
2018-04-09T12:53:38.209Z,1.00
2018-04-09T12:56:05.677Z,1.00
2018-04-09T12:58:33.147Z,1.00
2018-04-09T13:03:27.306Z,1.00
2018-04-09T13:05:54.782Z,1.00
2018-04-09T13:08:22.257Z,1.00
2018-04-09T13:10:49.721Z,1.00
2018-04-09T13:13:17.960Z,1.00
2018-04-09T13:15:45.421Z,1.00
2018-04-09T13:18:12.885Z,1.00
2018-04-09T13:20:41.122Z,1.00
2018-04-09T13:23:08.590Z,1.00
2018-04-09T13:25:36.068Z,1.00
2018-04-09T13:28:03.533Z,1.00
2018-04-09T13:30:31.766Z,1.00
2018-04-09T13:32:59.224Z,1.00
2018-04-09T13:35:27.457Z,1.00
2018-04-09T13:37:54.917Z,1.00
2018-04-09T13:40:22.398Z,1.00
2018-04-09T13:42:49.851Z,1.00
2018-04-09T13:45:17.322Z,1.00
2018-04-09T13:47:44.795Z,1.00
2018-04-09T13:50:12.260Z,1.00
2018-04-09T13:52:39.721Z,1.00
2018-04-09T13:55:07.951Z,1.00
2018-04-09T13:57:35.416Z,1.00
2018-04-09T14:00:02.986Z,1.00
2018-04-09T14:02:30.438Z,1.00
2018-04-09T14:04:58.668Z,1.00
2018-04-09T14:07:26.145Z,1.00
2018-04-09T14:09:53.618Z,1.00
2018-04-09T14:12:21.085Z,1.00
2018-04-09T14:14:49.328Z,1.00
2018-04-09T14:17:16.820Z,1.00
2018-04-09T14:19:44.285Z,1.00
2018-04-09T14:22:11.764Z,1.00
2018-04-09T14:24:39.245Z,1.00
2018-04-09T14:27:06.701Z,1.00
2018-04-09T14:29:40.591Z,1.00
2018-04-09T14:32:08.069Z,1.00
2018-04-09T14:34:35.533Z,1.00
2018-04-09T14:37:03.001Z,1.00
2018-04-09T14:39:30.477Z,1.00
2018-04-09T14:41:57.940Z,1.00
2018-04-09T14:44:26.173Z,1.00
2018-04-09T14:46:53.641Z,1.00
2018-04-09T14:49:21.115Z,1.00
2018-04-09T14:51:48.573Z,1.00
2018-04-09T14:54:16.054Z,1.00
2018-04-09T14:56:43.521Z,1.00
2018-04-09T14:59:10.989Z,1.00
2018-04-09T15:01:38.445Z,1.00
2018-04-09T15:04:05.919Z,1.00
2018-04-09T15:06:33.387Z,1.00
2018-04-09T15:09:01.622Z,1.00
2018-04-09T15:11:29.087Z,1.00
2018-04-09T15:13:56.557Z,1.00
2018-04-09T15:16:24.788Z,1.00
2018-04-09T15:18:52.254Z,1.00
2018-04-09T15:21:19.730Z,1.00
2018-04-09T15:23:47.180Z,1.00
2018-04-09T15:26:14.666Z,1.00
2018-04-09T15:28:42.114Z,1.00
2018-04-09T15:31:09.601Z,1.00
2018-04-09T15:33:37.049Z,1.00
2018-04-09T15:36:04.528Z,1.00
2018-04-09T15:38:31.984Z,1.00
2018-04-09T15:41:00.221Z,1.00
2018-04-09T15:43:27.681Z,1.00
2018-04-09T15:45:55.158Z,1.00
2018-04-09T15:48:23.377Z,1.00
2018-04-09T15:50:50.853Z,1.00
2018-04-09T15:53:20.259Z,1.00
2018-04-09T15:55:49.482Z,1.00
2018-04-09T15:58:23.334Z,1.00
2018-04-09T16:00:50.801Z,1.00
2018-04-09T16:03:19.465Z,1.00
2018-04-09T16:05:58.761Z,1.00
2018-04-09T16:08:26.895Z,1.00
2018-04-09T16:10:55.133Z,1.00
2018-04-09T16:13:42.624Z,1.00
2018-04-09T16:16:10.102Z,1.00
2018-04-09T16:18:37.565Z,1.00
2018-04-09T16:21:05.799Z,1.00
2018-04-09T16:26:37.442Z,1.00
2018-04-09T16:29:04.898Z,1.00
2018-04-09T16:31:34.286Z,1.00
2018-04-09T16:34:05.023Z,1.00
2018-04-09T16:36:45.381Z,1.00
2018-04-09T16:39:18.389Z,1.00
2018-04-09T16:41:47.854Z,1.00
2018-04-09T16:44:16.098Z,1.00
2018-04-09T16:46:43.577Z,1.00
2018-04-09T16:49:29.586Z,1.00
2018-04-09T16:51:58.172Z,1.00
2018-04-09T16:54:26.402Z,1.00
2018-04-09T16:57:01.604Z,1.00
2018-04-09T16:59:32.808Z,1.00
2018-04-09T17:02:18.231Z,1.00
2018-04-09T17:04:45.705Z,1.00
2018-04-09T17:07:13.173Z,1.00
2018-04-09T17:09:41.597Z,1.00
2018-04-09T17:12:09.979Z,1.00
2018-04-09T17:14:39.209Z,1.00
2018-04-09T17:17:12.411Z,1.00
2018-04-09T17:19:39.879Z,1.00
2018-04-09T17:22:07.355Z,1.00
2018-04-09T17:24:35.662Z,1.00
2018-04-09T17:27:03.128Z,1.00
2018-04-09T17:29:30.597Z,1.00
2018-04-09T17:31:58.797Z,1.00
2018-04-09T17:34:26.320Z,1.00
2018-04-09T17:36:53.853Z,1.00
2018-04-09T17:39:23.136Z,1.00
2018-04-09T17:41:57.162Z,1.00
2018-04-09T17:44:25.539Z,1.00
2018-04-09T17:46:53.780Z,1.00
2018-04-09T17:49:25.160Z,1.00
2018-04-09T17:51:53.401Z,1.00
2018-04-09T17:54:20.873Z,1.00
2018-04-09T17:56:48.344Z,1.00
2018-04-09T17:59:16.573Z,1.00
2018-04-09T18:01:44.037Z,1.00
2018-04-09T18:04:11.535Z,1.00
2018-04-09T18:06:39.044Z,1.00
2018-04-09T18:09:06.532Z,1.00
2018-04-09T18:11:34.004Z,1.00
2018-04-09T18:14:01.465Z,1.00
2018-04-09T18:16:30.006Z,1.00
2018-04-09T18:19:20.653Z,1.00
2018-04-09T18:21:54.205Z,1.00
2018-04-09T18:24:25.302Z,1.00
2018-04-09T18:26:55.447Z,1.00
2018-04-09T18:29:23.686Z,1.00
2018-04-09T18:31:51.152Z,1.00
2018-04-09T18:34:27.072Z,1.00
2018-04-09T18:36:54.545Z,1.00
2018-04-09T18:39:30.485Z,1.00
2018-04-09T18:41:58.891Z,1.00
2018-04-09T18:44:36.334Z,1.00
2018-04-09T18:47:03.809Z,1.00
2018-04-09T18:49:31.276Z,1.00
2018-04-09T18:51:58.745Z,1.00
2018-04-09T18:54:26.981Z,1.00
2018-04-09T18:56:54.452Z,1.00
2018-04-09T18:59:25.408Z,1.00
2018-04-09T19:02:07.492Z,1.00
2018-04-09T19:04:35.917Z,1.00
2018-04-09T19:07:04.154Z,1.00
2018-04-09T19:09:31.616Z,1.00
2018-04-09T19:11:59.878Z,1.00
2018-04-09T19:14:46.080Z,1.00
2018-04-09T19:17:14.548Z,1.00
2018-04-09T19:19:42.834Z,1.00
2018-04-09T19:22:10.246Z,1.00
2018-04-09T19:24:37.713Z,1.00
2018-04-09T19:27:22.225Z,1.00
2018-04-09T19:30:00.590Z,1.00
2018-04-09T19:32:29.047Z,1.00
2018-04-09T19:35:08.707Z,1.00
2018-04-09T19:37:42.539Z,1.00
2018-04-09T19:40:17.768Z,1.00
2018-04-09T19:42:52.230Z,1.00
2018-04-09T19:45:19.717Z,1.00
2018-04-09T19:47:47.950Z,1.00
2018-04-09T19:50:15.524Z,1.00
2018-04-09T19:52:43.000Z,1.00
2018-04-09T19:55:11.214Z,1.00
2018-04-09T19:57:49.190Z,1.00
2018-04-09T20:00:33.646Z,1.00
2018-04-09T20:03:02.023Z,1.00
2018-04-09T20:05:30.423Z,1.00
2018-04-09T20:07:59.650Z,1.00
2018-04-09T20:10:29.794Z,1.00
2018-04-09T20:12:57.272Z,1.00
2018-04-09T20:15:28.624Z,1.00
2018-04-09T20:18:06.105Z,1.00
2018-04-09T20:20:33.622Z,1.00
2018-04-09T20:23:02.059Z,1.00
2018-04-09T20:25:30.473Z,1.00
2018-04-09T20:27:58.859Z,1.00
2018-04-09T20:30:44.644Z,1.00
2018-04-09T20:33:12.123Z,1.00
2018-04-09T20:35:39.580Z,1.00
2018-04-09T20:38:07.041Z,1.00
2018-04-09T20:40:34.505Z,1.00
2018-04-09T20:43:02.974Z,1.00
2018-04-09T20:45:31.203Z,1.00
2018-04-09T20:47:58.680Z,1.00
2018-04-09T20:53:19.100Z,1.00
2018-04-09T20:55:46.595Z,1.00
2018-04-09T20:58:14.008Z,1.00
2018-04-09T21:00:41.469Z,1.00
2018-04-09T21:03:16.515Z,1.00
2018-04-09T21:05:43.969Z,1.00
2018-04-09T21:08:11.440Z,1.00
2018-04-09T21:10:38.909Z,1.00
2018-04-09T21:13:07.178Z,1.00
2018-04-09T21:15:34.636Z,1.00
2018-04-09T21:18:04.028Z,1.00
2018-04-09T21:20:31.497Z,1.00
2018-04-09T21:22:59.759Z,1.00
2018-04-09T21:25:27.217Z,1.00
2018-04-09T21:27:55.693Z,1.00
2018-04-09T21:30:23.918Z,1.00
2018-04-09T21:32:51.380Z,1.00
2018-04-09T21:35:19.615Z,1.00
2018-04-09T21:37:52.267Z,1.00
2018-04-09T21:40:19.733Z,1.00
2018-04-09T21:42:53.345Z,1.00
2018-04-09T21:45:20.815Z,1.00
2018-04-09T21:47:48.272Z,1.00
2018-04-09T21:50:15.748Z,1.00
2018-04-09T21:52:43.249Z,1.00
2018-04-09T21:55:10.729Z,1.00
2018-04-09T21:57:38.200Z,1.00
2018-04-09T22:00:05.667Z,1.00
2018-04-09T22:02:33.159Z,1.00
2018-04-09T22:05:00.630Z,1.00
2018-04-09T22:07:28.881Z,1.00
2018-04-09T22:09:56.348Z,1.00
2018-04-09T22:12:23.809Z,1.00
2018-04-09T22:14:51.284Z,1.00
2018-04-09T22:17:19.508Z,1.00
2018-04-09T22:19:46.986Z,1.00
2018-04-09T22:22:14.463Z,1.00
2018-04-09T22:24:42.850Z,1.00
2018-04-09T22:27:10.315Z,1.00
2018-04-09T22:29:37.790Z,1.00
2018-04-09T22:32:05.244Z,1.00
2018-04-09T22:34:32.727Z,1.00
2018-04-09T22:37:00.194Z,1.00
2018-04-09T22:39:27.695Z,1.00
2018-04-09T22:41:55.154Z,1.00
2018-04-09T22:44:22.613Z,1.00
2018-04-09T22:46:50.850Z,1.00
2018-04-09T22:49:18.314Z,1.00
2018-04-09T22:51:45.781Z,1.00
2018-04-09T22:54:14.008Z,1.00
2018-04-09T22:56:43.422Z,1.00
2018-04-09T22:59:10.890Z,1.00
2018-04-09T23:01:39.144Z,1.00
2018-04-09T23:04:06.609Z,1.00
2018-04-09T23:06:34.082Z,1.00
2018-04-09T23:09:01.541Z,1.00
2018-04-09T23:11:33.210Z,1.00
2018-04-09T23:14:00.671Z,1.00
2018-04-09T23:16:28.135Z,1.00
2018-04-09T23:18:55.589Z,1.00
2018-04-09T23:21:23.077Z,1.00
2018-04-09T23:23:50.536Z,1.00
2018-04-09T23:26:18.003Z,1.00
2018-04-09T23:28:46.229Z,1.00
2018-04-09T23:31:18.699Z,1.00
2018-04-09T23:33:46.162Z,1.00
2018-04-09T23:36:13.623Z,1.00
2018-04-09T23:38:41.074Z,1.00
2018-04-09T23:41:08.546Z,1.00
2018-04-09T23:43:36.767Z,1.00
2018-04-09T23:46:04.232Z,1.00
2018-04-09T23:48:32.461Z,1.00
2018-04-09T23:50:59.921Z,1.00
2018-04-09T23:53:27.392Z,1.00
2018-04-09T23:55:56.587Z,1.00
2018-04-09T23:58:24.052Z,1.00
